createdAt,value
2018-08-04T00:01:39.577Z,22.65
2018-08-04T00:04:08.064Z,22.65
2018-08-04T00:06:36.980Z,22.66
2018-08-04T00:09:09.648Z,22.65
2018-08-04T00:11:38.284Z,22.63
2018-08-04T00:14:06.870Z,22.62
2018-08-04T00:16:35.809Z,22.63
2018-08-04T00:19:04.349Z,22.61
2018-08-04T00:21:32.894Z,22.59
2018-08-04T00:24:01.469Z,22.56
2018-08-04T00:26:32.430Z,22.54
2018-08-04T00:29:02.124Z,22.51
2018-08-04T00:31:34.206Z,22.50
2018-08-04T00:34:02.791Z,22.46
2018-08-04T00:36:31.369Z,22.43
2018-08-04T00:38:59.837Z,22.42
2018-08-04T00:41:37.269Z,22.40
2018-08-04T00:44:05.827Z,22.34
2018-08-04T00:46:34.395Z,22.24
2018-08-04T00:49:02.863Z,22.18
2018-08-04T00:51:31.429Z,22.13
2018-08-04T00:53:59.880Z,22.08
2018-08-04T00:56:29.246Z,22.03
2018-08-04T00:58:57.764Z,22.00
2018-08-04T01:01:26.345Z,21.95
2018-08-04T01:03:54.841Z,21.88
2018-08-04T01:06:23.465Z,21.84
2018-08-04T01:08:52.003Z,21.80
2018-08-04T01:11:20.533Z,21.76
2018-08-04T01:13:49.136Z,21.72
2018-08-04T01:16:17.610Z,21.66
2018-08-04T01:18:46.057Z,21.65
2018-08-04T01:21:14.575Z,21.64
2018-08-04T01:23:43.043Z,21.62
2018-08-04T01:26:11.705Z,21.62
2018-08-04T01:28:40.119Z,21.57
2018-08-04T01:31:08.795Z,21.53
2018-08-04T01:33:37.287Z,21.46
2018-08-04T01:36:05.996Z,21.45
2018-08-04T01:38:34.442Z,21.44
2018-08-04T01:41:02.893Z,21.42
2018-08-04T01:43:31.423Z,21.41
2018-08-04T01:45:59.999Z,21.40
2018-08-04T01:48:29.092Z,21.37
2018-08-04T01:50:57.580Z,21.35
2018-08-04T01:53:26.135Z,21.34
2018-08-04T01:55:54.681Z,21.31
2018-08-04T01:58:23.104Z,21.30
2018-08-04T02:00:51.608Z,21.24
2018-08-04T02:03:20.116Z,21.14
2018-08-04T02:05:48.586Z,21.08
2018-08-04T02:08:17.146Z,21.07
2018-08-04T02:10:45.628Z,21.01
2018-08-04T02:13:14.129Z,20.92
2018-08-04T02:15:42.605Z,20.90
2018-08-04T02:18:11.016Z,20.86
2018-08-04T02:20:39.562Z,20.78
2018-08-04T02:23:08.048Z,20.69
2018-08-04T02:29:19.459Z,20.57
2018-08-04T02:31:47.894Z,20.48
2018-08-04T02:34:16.312Z,20.36
2018-08-04T02:36:44.744Z,20.29
2018-08-04T02:39:13.278Z,20.28
2018-08-04T02:41:41.764Z,20.31
2018-08-04T02:44:10.222Z,20.28
2018-08-04T02:46:38.792Z,20.24
2018-08-04T02:49:07.266Z,20.22
2018-08-04T02:52:00.477Z,20.22
2018-08-04T02:54:28.951Z,20.20
2018-08-04T02:56:57.438Z,20.19
2018-08-04T02:59:26.022Z,20.16
2018-08-04T03:01:54.474Z,20.13
2018-08-04T03:04:22.961Z,20.09
2018-08-04T03:06:51.455Z,20.04
2018-08-04T03:09:19.989Z,20.00
2018-08-04T03:11:48.553Z,19.97
2018-08-04T03:14:17.208Z,19.99
2018-08-04T03:16:45.710Z,20.02
2018-08-04T03:19:14.136Z,20.04
2018-08-04T03:21:42.662Z,20.00
2018-08-04T03:24:11.140Z,19.99
2018-08-04T03:27:10.662Z,19.96
2018-08-04T03:29:39.114Z,19.92
2018-08-04T03:32:07.923Z,19.97
2018-08-04T03:34:36.403Z,20.02
2018-08-04T03:37:04.980Z,20.07
2018-08-04T03:39:33.766Z,20.09
2018-08-04T03:42:02.264Z,20.09
2018-08-04T03:44:30.743Z,20.10
2018-08-04T03:46:59.209Z,20.08
2018-08-04T03:49:27.905Z,20.09
2018-08-04T03:51:56.416Z,20.14
2018-08-04T03:54:24.881Z,20.18
2018-08-04T03:56:53.426Z,20.24
2018-08-04T03:59:21.926Z,20.29
2018-08-04T04:01:50.417Z,20.32
2018-08-04T04:04:18.934Z,20.36
2018-08-04T04:06:47.523Z,20.34
2018-08-04T04:09:16.166Z,20.28
2018-08-04T04:11:44.632Z,20.27
2018-08-04T04:14:13.110Z,20.24
2018-08-04T04:16:41.612Z,20.24
2018-08-04T04:19:10.199Z,20.30
2018-08-04T04:21:38.821Z,20.35
2018-08-04T04:24:07.462Z,20.31
2018-08-04T04:26:35.956Z,20.28
2018-08-04T04:29:04.438Z,20.31
2018-08-04T04:31:32.925Z,20.38
2018-08-04T04:34:01.602Z,20.41
2018-08-04T04:36:30.093Z,20.47
2018-08-04T04:38:58.695Z,20.50
2018-08-04T04:41:27.346Z,20.51
2018-08-04T04:43:55.831Z,20.56
2018-08-04T04:46:24.370Z,20.60
2018-08-04T04:48:53.008Z,20.63
2018-08-04T04:51:21.475Z,20.65
2018-08-04T04:53:59.122Z,20.65
2018-08-04T04:56:27.657Z,20.64
2018-08-04T04:58:56.185Z,20.68
2018-08-04T05:01:24.724Z,20.75
2018-08-04T05:03:53.332Z,20.81
2018-08-04T05:06:21.840Z,20.78
2018-08-04T05:08:50.425Z,20.80
2018-08-04T05:11:18.871Z,20.82
2018-08-04T05:13:47.335Z,20.85
2018-08-04T05:16:15.764Z,20.92
2018-08-04T05:18:44.325Z,20.98
2018-08-04T05:21:12.824Z,21.02
2018-08-04T05:23:41.476Z,21.04
2018-08-04T05:26:09.968Z,21.11
2018-08-04T05:28:38.388Z,21.16
2018-08-04T05:31:07.333Z,21.22
2018-08-04T05:33:36.001Z,21.25
2018-08-04T05:36:04.508Z,21.30
2018-08-04T05:38:32.981Z,21.37
2018-08-04T05:41:01.399Z,21.42
2018-08-04T05:43:30.051Z,21.49
2018-08-04T05:45:58.520Z,21.55
2018-08-04T05:48:27.017Z,21.59
2018-08-04T05:50:55.585Z,21.62
2018-08-04T05:53:24.075Z,21.63
2018-08-04T05:55:52.685Z,21.66
2018-08-04T05:58:21.125Z,21.73
2018-08-04T06:00:49.718Z,21.78
2018-08-04T06:03:18.145Z,21.78
2018-08-04T06:05:46.714Z,21.81
2018-08-04T06:08:15.271Z,21.87
2018-08-04T06:10:43.772Z,21.92
2018-08-04T06:13:12.328Z,21.99
2018-08-04T06:15:43.065Z,22.14
2018-08-04T06:18:11.559Z,22.27
2018-08-04T06:20:40.137Z,22.35
2018-08-04T06:23:08.594Z,22.38
2018-08-04T06:25:37.076Z,22.41
2018-08-04T06:28:06.133Z,22.40
2018-08-04T06:30:35.305Z,22.43
2018-08-04T06:33:03.771Z,22.47
2018-08-04T06:35:32.261Z,22.54
2018-08-04T06:38:00.685Z,22.58
2018-08-04T06:40:29.255Z,22.64
2018-08-04T06:42:57.701Z,22.66
2018-08-04T06:45:26.220Z,22.65
2018-08-04T06:47:54.876Z,22.64
2018-08-04T06:50:23.440Z,22.60
2018-08-04T06:52:51.959Z,22.62
2018-08-04T06:55:20.517Z,22.62
2018-08-04T06:57:48.977Z,22.66
2018-08-04T07:00:17.507Z,22.77
2018-08-04T07:02:46.065Z,22.88
2018-08-04T07:05:14.580Z,22.99
2018-08-04T07:07:43.162Z,23.08
2018-08-04T07:10:11.718Z,23.10
2018-08-04T07:12:40.216Z,23.14
2018-08-04T07:15:08.767Z,23.11
2018-08-04T07:17:37.197Z,23.10
2018-08-04T07:20:06.101Z,23.10
2018-08-04T07:22:34.639Z,23.11
2018-08-04T07:25:03.148Z,23.18
2018-08-04T07:27:33.976Z,23.29
2018-08-04T07:30:02.476Z,23.40
2018-08-04T07:32:31.010Z,23.51
2018-08-04T07:34:59.494Z,23.63
2018-08-04T07:37:27.997Z,23.71
2018-08-04T07:39:56.626Z,23.79
2018-08-04T07:42:25.153Z,23.89
2018-08-04T07:44:53.603Z,24.01
2018-08-04T07:47:22.117Z,24.07
2018-08-04T07:49:50.591Z,24.21
2018-08-04T07:52:19.146Z,24.30
2018-08-04T07:54:47.671Z,24.43
2018-08-04T07:57:16.171Z,24.51
2018-08-04T07:59:44.719Z,24.55
2018-08-04T08:02:13.165Z,24.62
2018-08-04T08:04:41.703Z,24.76
2018-08-04T08:07:10.253Z,24.85
2018-08-04T08:09:38.760Z,25.02
2018-08-04T08:12:07.274Z,25.15
2018-08-04T08:14:36.025Z,25.25
2018-08-04T08:17:04.569Z,25.37
2018-08-04T08:19:33.096Z,25.49
2018-08-04T08:22:01.632Z,25.60
2018-08-04T08:24:30.201Z,25.72
2018-08-04T08:27:04.106Z,25.83
2018-08-04T08:29:32.672Z,25.90
2018-08-04T08:32:01.246Z,26.05
2018-08-04T08:34:29.732Z,26.22
2018-08-04T08:36:58.329Z,26.31
2018-08-04T08:39:26.898Z,26.44
2018-08-04T08:41:55.475Z,26.55
2018-08-04T08:44:23.956Z,26.63
2018-08-04T08:46:52.535Z,26.73
2018-08-04T08:49:21.086Z,26.82
2018-08-04T08:51:49.669Z,26.85
2018-08-04T08:54:18.181Z,26.95
2018-08-04T08:56:46.669Z,27.01
2018-08-04T08:59:15.181Z,27.01
2018-08-04T09:01:43.744Z,27.03
2018-08-04T09:04:12.316Z,27.07
2018-08-04T09:06:40.833Z,27.20
2018-08-04T09:09:10.625Z,27.23
2018-08-04T09:11:39.171Z,27.25
2018-08-04T09:14:07.769Z,27.28
2018-08-04T09:17:08.328Z,27.33
2018-08-04T09:19:36.809Z,27.41
2018-08-04T09:22:27.122Z,27.47
2018-08-04T09:24:55.770Z,27.52
2018-08-04T09:28:04.209Z,27.57
2018-08-04T09:30:32.955Z,27.62
2018-08-04T09:33:03.633Z,27.67
2018-08-04T09:35:32.187Z,27.75
2018-08-04T09:38:00.831Z,27.79
2018-08-04T09:40:29.504Z,27.87
2018-08-04T09:42:58.045Z,27.97
2018-08-04T09:45:26.637Z,28.02
2018-08-04T09:47:55.374Z,28.04
2018-08-04T09:50:23.911Z,28.08
2018-08-04T09:52:52.361Z,28.14
2018-08-04T09:55:20.863Z,28.14
2018-08-04T09:57:49.313Z,28.26
2018-08-04T10:00:22.965Z,28.31
2018-08-04T10:02:51.530Z,28.36
2018-08-04T10:05:20.084Z,28.45
2018-08-04T10:07:48.597Z,28.54
2018-08-04T10:10:17.215Z,28.54
2018-08-04T10:12:45.801Z,28.65
2018-08-04T10:15:14.364Z,28.76
2018-08-04T10:17:42.950Z,28.79
2018-08-04T10:20:12.480Z,28.90
2018-08-04T10:22:41.051Z,28.98
2018-08-04T10:25:09.811Z,29.05
2018-08-04T10:27:38.294Z,29.12
2018-08-04T10:30:09.299Z,29.23
2018-08-04T10:32:37.939Z,29.33
2018-08-04T10:35:06.804Z,29.42
2018-08-04T10:37:35.286Z,29.56
2018-08-04T10:40:03.828Z,29.66
2018-08-04T10:42:32.382Z,29.73
2018-08-04T10:45:00.823Z,29.77
2018-08-04T10:47:29.330Z,29.84
2018-08-04T10:49:57.894Z,29.96
2018-08-04T10:52:26.403Z,30.04
2018-08-04T10:54:54.904Z,30.16
2018-08-04T10:57:23.374Z,30.23
2018-08-04T10:59:51.950Z,30.41
2018-08-04T11:02:20.498Z,30.56
2018-08-04T11:04:48.993Z,30.61
2018-08-04T11:07:17.478Z,30.67
2018-08-04T11:09:46.146Z,30.82
2018-08-04T11:12:14.680Z,30.85
2018-08-04T11:14:43.769Z,30.93
2018-08-04T11:17:12.317Z,31.14
2018-08-04T11:19:41.036Z,31.14
2018-08-04T11:22:09.594Z,31.20
2018-08-04T11:24:38.070Z,31.25
2018-08-04T11:27:06.580Z,31.43
2018-08-04T11:29:35.222Z,31.54
2018-08-04T11:35:24.937Z,31.83
2018-08-04T11:41:31.904Z,31.86
2018-08-04T11:44:00.410Z,31.96
2018-08-04T11:46:29.364Z,32.09
2018-08-04T11:48:57.886Z,32.30
2018-08-04T11:51:26.410Z,32.44
2018-08-04T11:53:55.005Z,32.70
2018-08-04T11:56:23.534Z,33.00
2018-08-04T11:58:52.006Z,33.25
2018-08-04T12:01:20.666Z,33.54
2018-08-04T12:03:49.195Z,33.68
2018-08-04T12:06:17.875Z,34.03
2018-08-04T12:08:46.486Z,34.18
2018-08-04T12:11:15.084Z,34.21
2018-08-04T12:13:43.620Z,34.26
2018-08-04T12:16:12.224Z,34.26
2018-08-04T12:18:40.826Z,34.43
2018-08-04T12:21:09.361Z,34.70
2018-08-04T12:23:37.973Z,34.92
2018-08-04T12:26:06.528Z,35.04
2018-08-04T12:28:35.016Z,35.22
2018-08-04T12:31:03.515Z,35.46
2018-08-04T12:33:32.088Z,35.78
2018-08-04T12:36:00.563Z,35.62
2018-08-04T12:38:29.334Z,35.63
2018-08-04T12:40:57.854Z,35.78
2018-08-04T12:43:26.336Z,36.05
2018-08-04T12:45:54.806Z,35.90
2018-08-04T12:48:23.313Z,35.94
2018-08-04T12:50:51.851Z,35.86
2018-08-04T12:53:20.350Z,35.96
2018-08-04T12:55:49.007Z,36.13
2018-08-04T12:58:17.529Z,36.46
2018-08-04T13:00:46.526Z,36.87
2018-08-04T13:03:15.055Z,36.61
2018-08-04T13:05:43.753Z,36.54
2018-08-04T13:08:12.258Z,36.47
2018-08-04T13:10:40.823Z,36.36
2018-08-04T13:13:09.453Z,36.49
2018-08-04T13:15:37.900Z,36.06
2018-08-04T13:18:06.470Z,35.79
2018-08-04T13:20:34.946Z,36.14
2018-08-04T13:23:03.430Z,36.48
2018-08-04T13:25:31.916Z,36.66
2018-08-04T13:28:00.394Z,36.78
2018-08-04T13:30:28.928Z,36.66
2018-08-04T13:32:57.457Z,36.65
2018-08-04T13:35:26.472Z,36.71
2018-08-04T13:37:54.922Z,36.53
2018-08-04T13:40:23.508Z,36.54
2018-08-04T13:42:52.053Z,36.81
2018-08-04T13:45:20.670Z,37.03
2018-08-04T13:47:49.189Z,37.10
2018-08-04T13:50:19.432Z,37.15
2018-08-04T13:52:47.969Z,36.94
2018-08-04T13:55:18.700Z,36.65
2018-08-04T13:57:47.395Z,36.34
2018-08-04T14:00:15.997Z,36.47
2018-08-04T14:02:44.566Z,36.48
2018-08-04T14:05:13.181Z,36.32
2018-08-04T14:07:41.785Z,36.20
2018-08-04T14:10:10.301Z,36.26
2018-08-04T14:12:38.980Z,36.36
2018-08-04T14:15:07.458Z,35.84
2018-08-04T14:17:36.094Z,35.00
2018-08-04T14:20:26.063Z,34.59
2018-08-04T14:22:54.660Z,34.77
2018-08-04T14:25:23.212Z,35.11
2018-08-04T14:27:51.691Z,35.22
2018-08-04T14:30:20.189Z,35.38
2018-08-04T14:32:48.739Z,35.80
2018-08-04T14:35:17.249Z,35.80
2018-08-04T14:37:45.834Z,35.49
2018-08-04T14:40:14.365Z,35.15
2018-08-04T14:42:43.036Z,34.39
2018-08-04T14:45:12.017Z,33.92
2018-08-04T14:47:40.542Z,33.69
2018-08-04T14:50:09.180Z,33.41
2018-08-04T14:52:37.627Z,33.09
2018-08-04T14:55:06.602Z,32.96
2018-08-04T14:57:35.261Z,33.15
2018-08-04T15:00:03.810Z,33.35
2018-08-04T15:02:33.570Z,33.32
2018-08-04T15:05:02.219Z,33.14
2018-08-04T15:07:30.682Z,33.01
2018-08-04T15:09:59.237Z,32.89
2018-08-04T15:12:27.839Z,32.91
2018-08-04T15:14:56.395Z,33.21
2018-08-04T15:17:24.934Z,33.29
2018-08-04T15:19:53.434Z,33.27
2018-08-04T15:22:21.966Z,33.53
2018-08-04T15:24:50.572Z,33.93
2018-08-04T15:27:19.114Z,34.19
2018-08-04T15:29:47.561Z,34.16
2018-08-04T15:32:16.015Z,33.98
2018-08-04T15:34:44.585Z,33.93
2018-08-04T15:37:13.214Z,33.88
2018-08-04T15:39:41.712Z,33.99
2018-08-04T15:42:10.238Z,33.95
2018-08-04T15:44:38.773Z,33.95
2018-08-04T15:47:07.308Z,34.01
2018-08-04T15:49:35.893Z,33.93
2018-08-04T15:52:04.419Z,34.02
2018-08-04T15:54:32.905Z,33.96
2018-08-04T15:57:01.545Z,33.99
2018-08-04T15:59:30.077Z,33.88
2018-08-04T16:01:58.610Z,33.83
2018-08-04T16:04:27.161Z,33.73
2018-08-04T16:06:55.713Z,33.72
2018-08-04T16:09:24.191Z,33.66
2018-08-04T16:11:52.661Z,33.48
2018-08-04T16:14:21.669Z,33.21
2018-08-04T16:16:50.166Z,33.04
2018-08-04T16:19:18.840Z,32.90
2018-08-04T16:21:47.364Z,32.85
2018-08-04T16:24:16.091Z,32.79
2018-08-04T16:26:44.815Z,32.70
2018-08-04T16:29:13.276Z,32.60
2018-08-04T16:31:41.756Z,32.47
2018-08-04T16:34:10.238Z,32.18
2018-08-04T16:36:38.751Z,31.88
2018-08-04T16:39:09.365Z,31.61
2018-08-04T16:41:37.963Z,31.35
2018-08-04T16:44:06.632Z,31.13
2018-08-04T16:46:35.138Z,30.91
2018-08-04T16:49:03.745Z,30.74
2018-08-04T16:51:32.233Z,30.59
2018-08-04T16:54:00.759Z,30.50
2018-08-04T16:56:29.201Z,30.45
2018-08-04T16:58:57.716Z,30.38
2018-08-04T17:01:26.390Z,30.34
2018-08-04T17:03:55.941Z,30.35
2018-08-04T17:06:24.555Z,30.37
2018-08-04T17:08:53.078Z,30.31
2018-08-04T17:11:21.770Z,30.24
2018-08-04T17:13:50.394Z,30.15
2018-08-04T17:16:18.861Z,30.06
2018-08-04T17:18:47.381Z,29.99
2018-08-04T17:21:15.896Z,29.94
2018-08-04T17:23:44.568Z,29.81
2018-08-04T17:26:13.067Z,29.80
2018-08-04T17:28:41.668Z,29.74
2018-08-04T17:31:10.237Z,29.62
2018-08-04T17:33:38.930Z,29.45
2018-08-04T17:36:07.603Z,29.39
2018-08-04T17:38:36.231Z,29.31
2018-08-04T17:41:04.809Z,29.23
2018-08-04T17:43:33.343Z,29.16
2018-08-04T17:46:01.964Z,29.15
2018-08-04T17:48:30.522Z,29.12
2018-08-04T17:50:58.999Z,29.06
2018-08-04T17:53:27.593Z,29.01
2018-08-04T17:55:56.054Z,28.84
2018-08-04T17:58:24.552Z,28.66
2018-08-04T18:00:53.041Z,28.53
2018-08-04T18:03:21.550Z,28.50
2018-08-04T18:05:49.992Z,28.40
2018-08-04T18:08:18.684Z,28.31
2018-08-04T18:10:47.154Z,28.23
2018-08-04T18:13:15.701Z,28.13
2018-08-04T18:15:44.235Z,28.04
2018-08-04T18:18:12.794Z,27.95
2018-08-04T18:20:41.288Z,27.81
2018-08-04T18:23:09.892Z,27.72
2018-08-04T18:25:38.444Z,27.58
2018-08-04T18:28:06.884Z,27.46
2018-08-04T18:30:35.522Z,27.34
2018-08-04T18:33:04.048Z,27.27
2018-08-04T18:35:32.594Z,27.12
2018-08-04T18:38:01.260Z,26.99
2018-08-04T18:41:13.859Z,26.84
2018-08-04T18:43:42.371Z,26.66
2018-08-04T18:46:10.956Z,26.56
2018-08-04T18:48:39.527Z,26.45
2018-08-04T18:51:08.322Z,26.36
2018-08-04T18:53:37.030Z,26.26
2018-08-04T18:56:05.694Z,26.15
2018-08-04T18:58:34.190Z,26.05
2018-08-04T19:01:02.702Z,25.95
2018-08-04T19:03:31.256Z,25.84
2018-08-04T19:05:59.923Z,25.76
2018-08-04T19:08:28.388Z,25.69
2018-08-04T19:10:56.902Z,25.62
2018-08-04T19:13:25.482Z,25.52
2018-08-04T19:15:54.065Z,25.46
2018-08-04T19:18:22.838Z,25.38
2018-08-04T19:20:51.374Z,25.31
2018-08-04T19:23:19.922Z,25.22
2018-08-04T19:25:48.403Z,25.15
2018-08-04T19:28:16.982Z,25.09
2018-08-04T19:30:45.499Z,25.02
2018-08-04T19:33:13.992Z,24.96
2018-08-04T19:35:42.575Z,24.89
2018-08-04T19:38:11.084Z,24.84
2018-08-04T19:40:39.746Z,24.78
2018-08-04T19:43:08.273Z,24.73
2018-08-04T19:46:27.916Z,24.66
2018-08-04T19:48:56.426Z,24.55
2018-08-04T19:51:24.959Z,24.49
2018-08-04T19:53:54.595Z,24.44
2018-08-04T19:56:23.161Z,24.40
2018-08-04T19:58:51.964Z,24.37
2018-08-04T20:01:20.506Z,24.32
2018-08-04T20:03:49.303Z,24.27
2018-08-04T20:06:18.156Z,24.20
2018-08-04T20:08:46.821Z,24.14
2018-08-04T20:11:15.445Z,24.11
2018-08-04T20:13:43.968Z,24.06
2018-08-04T20:16:12.548Z,24.01
2018-08-04T20:18:41.908Z,23.99
2018-08-04T20:21:10.670Z,23.96
2018-08-04T20:23:39.454Z,23.89
2018-08-04T20:26:08.032Z,23.85
2018-08-04T20:28:36.569Z,23.82
2018-08-04T20:31:05.410Z,23.77
2018-08-04T20:33:34.226Z,23.71
2018-08-04T20:36:02.942Z,23.67
2018-08-04T20:38:31.620Z,23.64
2018-08-04T20:41:00.494Z,23.59
2018-08-04T20:43:29.052Z,23.54
2018-08-04T20:45:57.573Z,23.50
2018-08-04T20:48:26.205Z,23.45
2018-08-04T20:50:54.941Z,23.41
2018-08-04T20:53:24.249Z,23.38
2018-08-04T20:55:52.758Z,23.34
2018-08-04T20:58:21.396Z,23.28
2018-08-04T21:01:01.118Z,23.25
2018-08-04T21:03:29.737Z,23.21
2018-08-04T21:05:58.437Z,23.18
2018-08-04T21:09:02.920Z,23.14
2018-08-04T21:11:31.519Z,23.09
2018-08-04T21:14:00.115Z,23.07
2018-08-04T21:16:28.781Z,23.03
2018-08-04T21:18:57.689Z,22.98
2018-08-04T21:21:26.513Z,22.94
2018-08-04T21:23:55.075Z,22.89
2018-08-04T21:26:23.748Z,22.86
2018-08-04T21:28:52.370Z,22.81
2018-08-04T21:31:20.944Z,22.75
2018-08-04T21:33:49.504Z,22.70
2018-08-04T21:36:18.003Z,22.64
2018-08-04T21:38:47.762Z,22.60
2018-08-04T21:41:16.561Z,22.55
2018-08-04T21:43:47.241Z,22.52
2018-08-04T21:46:16.442Z,22.47
2018-08-04T21:48:45.924Z,22.44
2018-08-04T21:51:14.425Z,22.41
2018-08-04T21:53:42.981Z,22.37
2018-08-04T21:56:11.662Z,22.32
2018-08-04T21:58:40.268Z,22.28
2018-08-04T22:01:13.996Z,22.24
2018-08-04T22:03:43.914Z,22.19
2018-08-04T22:06:13.095Z,22.15
2018-08-04T22:08:52.982Z,22.09
2018-08-04T22:11:21.570Z,22.03
2018-08-04T22:13:50.152Z,22.00
2018-08-04T22:16:18.745Z,21.95
2018-08-04T22:18:47.337Z,21.92
2018-08-04T22:21:15.960Z,21.88
2018-08-04T22:23:44.876Z,21.84
2018-08-04T22:26:13.644Z,21.81
2018-08-04T22:28:42.316Z,21.76
2018-08-04T22:31:11.018Z,21.71
2018-08-04T22:33:39.718Z,21.66
2018-08-04T22:36:08.475Z,21.62
2018-08-04T22:38:37.309Z,21.57
2018-08-04T22:41:06.196Z,21.55
2018-08-04T22:43:34.684Z,21.53
2018-08-04T22:46:04.749Z,21.47
2018-08-04T22:48:33.722Z,21.44
2018-08-04T22:51:03.100Z,21.35
2018-08-04T22:53:32.034Z,21.31
2018-08-04T22:56:00.590Z,21.27
2018-08-04T22:58:29.309Z,21.25
2018-08-04T23:00:58.018Z,21.22
2018-08-04T23:03:26.519Z,21.18
2018-08-04T23:05:55.135Z,21.14
2018-08-04T23:08:23.748Z,21.10
2018-08-04T23:10:52.292Z,21.07
2018-08-04T23:13:20.868Z,21.03
2018-08-04T23:15:49.496Z,21.02
2018-08-04T23:25:03.191Z,20.84
2018-08-04T23:27:44.487Z,20.81
2018-08-04T23:30:12.957Z,20.75
2018-08-04T23:32:41.468Z,20.71
2018-08-04T23:35:09.917Z,20.69
2018-08-04T23:37:38.529Z,20.65
2018-08-04T23:40:07.033Z,20.58
2018-08-04T23:42:35.557Z,20.52
2018-08-04T23:45:04.273Z,20.43
2018-08-04T23:47:33.351Z,20.32
2018-08-04T23:50:02.140Z,20.27
2018-08-04T23:52:30.594Z,20.26
2018-08-04T23:54:59.037Z,20.23
2018-08-04T23:57:27.690Z,20.23
2018-08-04T23:59:56.226Z,20.20
